createdAt,value
2018-06-16T00:01:40.546Z,19.40
2018-06-16T00:04:09.397Z,19.40
2018-06-16T00:06:38.540Z,19.40
2018-06-16T00:09:08.152Z,19.40
2018-06-16T00:11:37.033Z,19.30
2018-06-16T00:14:06.065Z,19.30
2018-06-16T00:16:34.608Z,19.30
2018-06-16T00:19:03.173Z,19.30
2018-06-16T00:21:31.678Z,19.30
2018-06-16T00:24:00.162Z,19.30
2018-06-16T00:26:28.645Z,19.30
2018-06-16T00:28:57.202Z,19.30
2018-06-16T00:31:26.516Z,19.20
2018-06-16T00:33:55.016Z,19.20
2018-06-16T00:36:23.513Z,19.20
2018-06-16T00:38:52.660Z,19.20
2018-06-16T00:41:21.511Z,19.20
2018-06-16T00:43:51.194Z,19.20
2018-06-16T00:46:19.730Z,19.20
2018-06-16T00:48:48.593Z,19.20
2018-06-16T00:51:17.149Z,19.10
2018-06-16T00:53:46.749Z,19.10
2018-06-16T00:56:15.266Z,19.10
2018-06-16T00:58:44.096Z,19.10
2018-06-16T01:01:12.648Z,19.00
2018-06-16T01:03:41.553Z,19.10
2018-06-16T01:06:10.116Z,19.00
2018-06-16T01:08:39.064Z,19.00
2018-06-16T01:11:07.553Z,19.00
2018-06-16T01:13:36.101Z,19.00
2018-06-16T01:16:04.942Z,18.90
2018-06-16T01:18:33.456Z,18.90
2018-06-16T01:21:01.985Z,18.90
2018-06-16T01:23:30.509Z,18.80
2018-06-16T01:25:59.001Z,18.80
2018-06-16T01:28:27.498Z,18.80
2018-06-16T01:30:56.320Z,18.80
2018-06-16T01:33:24.809Z,18.70
2018-06-16T01:35:53.308Z,18.70
2018-06-16T01:38:36.122Z,18.80
2018-06-16T01:41:04.660Z,18.70
2018-06-16T01:43:33.144Z,18.70
2018-06-16T01:46:01.709Z,18.70
2018-06-16T01:48:31.173Z,18.80
2018-06-16T01:50:59.685Z,18.80
2018-06-16T01:53:28.189Z,18.80
2018-06-16T01:55:56.672Z,18.70
2018-06-16T01:58:25.230Z,18.70
2018-06-16T02:00:53.777Z,18.70
2018-06-16T02:03:23.112Z,18.70
2018-06-16T02:05:51.622Z,18.70
2018-06-16T02:08:20.461Z,18.70
2018-06-16T02:10:48.941Z,18.70
2018-06-16T02:13:17.436Z,18.70
2018-06-16T02:15:45.928Z,18.70
2018-06-16T02:18:14.427Z,18.60
2018-06-16T02:20:43.255Z,18.60
2018-06-16T02:23:11.747Z,18.60
2018-06-16T02:25:40.241Z,18.70
2018-06-16T02:28:08.825Z,18.60
2018-06-16T02:30:37.820Z,18.50
2018-06-16T02:33:06.657Z,18.50
2018-06-16T02:35:35.499Z,18.50
2018-06-16T02:38:04.341Z,18.50
2018-06-16T02:40:33.213Z,18.50
2018-06-16T02:43:02.076Z,18.50
2018-06-16T02:45:30.574Z,18.50
2018-06-16T02:47:59.150Z,18.50
2018-06-16T02:50:27.880Z,18.50
2018-06-16T02:52:56.387Z,18.50
2018-06-16T02:55:25.042Z,18.50
2018-06-16T02:57:53.564Z,18.50
2018-06-16T03:00:22.044Z,18.40
2018-06-16T03:02:50.570Z,18.40
2018-06-16T03:05:19.082Z,18.40
2018-06-16T03:07:47.583Z,18.40
2018-06-16T03:10:16.113Z,18.40
2018-06-16T03:12:44.663Z,18.40
2018-06-16T03:15:13.194Z,18.30
2018-06-16T03:17:42.283Z,18.30
2018-06-16T03:20:10.827Z,18.30
2018-06-16T03:22:39.395Z,18.30
2018-06-16T03:25:09.026Z,18.30
2018-06-16T03:27:37.674Z,18.30
2018-06-16T03:30:07.802Z,18.30
2018-06-16T03:32:36.640Z,18.30
2018-06-16T03:35:05.150Z,18.20
2018-06-16T03:37:33.693Z,18.20
2018-06-16T03:40:02.210Z,18.20
2018-06-16T03:42:31.651Z,18.20
2018-06-16T03:45:00.158Z,18.20
2018-06-16T03:47:28.693Z,18.20
2018-06-16T03:49:57.549Z,18.20
2018-06-16T03:52:26.380Z,18.20
2018-06-16T03:54:54.879Z,18.20
2018-06-16T03:57:24.041Z,18.30
2018-06-16T03:59:52.545Z,18.20
2018-06-16T04:02:21.316Z,18.20
2018-06-16T04:04:49.905Z,18.20
2018-06-16T04:07:18.495Z,18.20
2018-06-16T04:33:27.605Z,18.30
2018-06-16T04:35:59.717Z,18.30
2018-06-16T04:39:05.447Z,18.30
2018-06-16T04:41:47.821Z,18.30
2018-06-16T04:47:06.550Z,18.30
2018-06-16T04:49:35.380Z,18.40
2018-06-16T04:52:04.853Z,18.40
2018-06-16T04:54:33.366Z,18.40
2018-06-16T04:57:01.918Z,18.40
2018-06-16T04:59:31.584Z,18.40
2018-06-16T05:02:00.086Z,18.40
2018-06-16T05:04:28.577Z,18.40
2018-06-16T05:06:57.068Z,18.50
2018-06-16T05:09:25.675Z,18.50
2018-06-16T05:11:54.168Z,18.40
2018-06-16T05:14:24.457Z,18.40
2018-06-16T05:16:52.987Z,18.40
2018-06-16T05:19:22.809Z,18.50
2018-06-16T05:21:52.272Z,18.50
2018-06-16T05:24:20.945Z,18.60
2018-06-16T05:26:49.471Z,18.90
2018-06-16T05:29:18.305Z,19.20
2018-06-16T05:31:47.129Z,19.20
2018-06-16T05:34:15.956Z,19.20
2018-06-16T05:36:44.439Z,19.20
2018-06-16T05:39:12.936Z,19.30
2018-06-16T05:41:41.740Z,19.40
2018-06-16T05:44:10.281Z,19.50
2018-06-16T05:46:38.760Z,19.60
2018-06-16T05:52:01.745Z,19.60
2018-06-16T05:54:31.029Z,19.70
2018-06-16T05:56:59.829Z,19.70
2018-06-16T05:59:28.735Z,19.60
2018-06-16T06:01:57.552Z,19.60
2018-06-16T06:04:26.936Z,19.70
2018-06-16T06:06:57.597Z,19.80
2018-06-16T06:09:27.080Z,19.80
2018-06-16T06:11:55.582Z,19.80
2018-06-16T06:14:24.061Z,19.90
2018-06-16T06:16:52.626Z,20.00
2018-06-16T06:19:26.030Z,20.00
2018-06-16T06:21:59.601Z,19.90
2018-06-16T06:24:33.684Z,19.90
2018-06-16T06:27:02.177Z,19.80
2018-06-16T06:29:30.654Z,19.90
2018-06-16T06:32:00.019Z,20.00
2018-06-16T06:34:28.986Z,20.20
2018-06-16T06:36:57.492Z,20.30
2018-06-16T06:45:28.754Z,20.40
2018-06-16T06:50:06.172Z,20.40
2018-06-16T06:52:34.772Z,20.20
2018-06-16T06:55:04.174Z,20.20
2018-06-16T06:57:32.760Z,20.20
2018-06-16T07:00:01.280Z,20.50
2018-06-16T07:02:29.813Z,20.50
2018-06-16T07:05:04.617Z,20.40
2018-06-16T07:07:33.135Z,20.50
2018-06-16T07:10:01.997Z,20.60
2018-06-16T07:12:30.554Z,20.60
2018-06-16T07:14:59.082Z,20.70
2018-06-16T07:17:36.832Z,20.60
2018-06-16T07:20:06.865Z,20.80
2018-06-16T07:22:38.139Z,20.80
2018-06-16T07:25:13.337Z,21.00
2018-06-16T07:31:32.269Z,21.00
2018-06-16T07:44:54.810Z,21.20
2018-06-16T07:47:23.348Z,21.20
2018-06-16T07:49:52.190Z,21.70
2018-06-16T07:52:20.688Z,21.80
2018-06-16T07:54:49.171Z,22.00
2018-06-16T07:57:17.645Z,22.10
2018-06-16T07:59:46.132Z,22.30
2018-06-16T08:02:14.628Z,22.30
2018-06-16T08:04:43.110Z,22.50
2018-06-16T08:07:11.680Z,22.60
2018-06-16T08:09:40.438Z,22.70
2018-06-16T08:12:09.060Z,22.80
2018-06-16T08:14:40.004Z,23.00
2018-06-16T08:17:08.523Z,23.00
2018-06-16T08:19:53.671Z,23.10
2018-06-16T08:22:37.577Z,23.10
2018-06-16T08:25:06.920Z,23.10
2018-06-16T08:27:37.354Z,23.20
2018-06-16T08:30:07.033Z,23.20
2018-06-16T08:32:38.267Z,23.30
2018-06-16T08:35:07.100Z,23.30
2018-06-16T08:37:35.783Z,23.40
2018-06-16T08:40:04.733Z,23.50
2018-06-16T08:42:57.588Z,23.80
2018-06-16T08:46:28.185Z,23.90
2018-06-16T08:48:56.720Z,24.00
2018-06-16T15:11:09.679Z,28.80
2018-06-16T15:52:34.703Z,28.80
2018-06-16T15:55:37.241Z,28.50
2018-06-16T16:01:19.040Z,28.10
2018-06-16T16:04:00.584Z,28.10
2018-06-16T16:10:40.571Z,28.20
